Terminal Aerodrome Forecast
Issued by NWS

Current Version | Previous Version | Text Only | Print | Product List | Glossary On
Versions: 1 2 3 4 5 6 7 8 9 10 11 12 13 14 15 16 17 18 19 20 21 22 23 24 25 26 27 28 29 30 31 32 33 34
000
FTUS45 KGJT 070532
TAFMTJ
TAF
KMTJ 070532Z 0706/0806 17008KT P6SM -SHRA SCT050 BKN090
     FM070800 14006KT P6SM VCSH FEW060 BKN100
     FM071300 14005KT P6SM SCT100 BKN150
     FM071700 23008KT P6SM BKN120
     FM072000 22013G21KT P6SM VCTS SCT080CB BKN120
     FM080200 17009KT P6SM FEW100 BKN200=

USA.gov is the U.S. government's official web portal to all federal, state and local government web resources and services.